Time;durP1;ratioP1;P1;durP2;ratioP2;P2;SDS_P1;SDS_P2;PMS_P1;PMS_P2;Temp;Humidity;BMP_temperature;BMP_pressure;BME280_temperature;BME280_humidity;BME280_pressure;Samples;Min_cycle;Max_cycle;Signal;HPM_P1;HPM_P2
2022/10/19 00:00:42;;;;;;;18.60;9.53;;;14.70;96.90;;;;;;5031776;28;20443;-71
2022/10/19 00:03:08;;;;;;;20.63;10.27;;;14.60;97.00;;;;;;5031372;28;20208;-72
2022/10/19 00:05:33;;;;;;;17.30;9.10;;;14.70;97.10;;;;;;5030685;28;20189;-70
2022/10/19 00:08:00;;;;;;;21.10;10.27;;;14.70;97.20;;;;;;5029556;28;20320;-70
2022/10/19 00:10:26;;;;;;;21.80;9.50;;;14.70;97.20;;;;;;5036892;28;20205;-71
2022/10/19 00:12:52;;;;;;;19.40;8.77;;;14.70;97.20;;;;;;5032770;28;20489;-71
2022/10/19 00:15:17;;;;;;;17.50;9.13;;;14.70;97.20;;;;;;5033747;28;20189;-70
2022/10/19 00:17:43;;;;;;;18.00;8.70;;;14.80;97.10;;;;;;5030809;28;20403;-71
2022/10/19 00:20:10;;;;;;;16.27;7.90;;;14.80;96.80;;;;;;5033914;28;20215;-70
2022/10/19 00:22:35;;;;;;;15.80;9.17;;;14.80;96.80;;;;;;5034506;28;20181;-71
2022/10/19 00:25:01;;;;;;;17.20;8.90;;;14.80;96.80;;;;;;5035168;28;20515;-72
2022/10/19 00:27:26;;;;;;;18.50;9.10;;;14.80;96.60;;;;;;5033080;28;20211;-72
2022/10/19 00:29:52;;;;;;;16.00;8.83;;;14.80;96.30;;;;;;5029122;28;20620;-71
2022/10/19 00:32:17;;;;;;;15.50;8.07;;;14.80;96.20;;;;;;5027844;28;20197;-71
2022/10/19 00:34:43;;;;;;;16.40;8.10;;;14.70;96.00;;;;;;5034265;28;20189;-74
2022/10/19 00:37:09;;;;;;;16.60;8.47;;;14.70;95.80;;;;;;5031373;28;20213;-72
2022/10/19 00:39:34;;;;;;;18.73;9.13;;;14.60;95.70;;;;;;5033324;28;20659;-69
2022/10/19 00:42:00;;;;;;;15.90;8.97;;;14.50;95.70;;;;;;5032032;28;20213;-71
2022/10/19 00:44:28;;;;;;;16.53;8.50;;;14.50;95.90;;;;;;5033793;28;20209;-70
2022/10/19 00:46:58;;;;;;;14.60;8.40;;;14.50;96.30;;;;;;5031687;28;20233;-70
2022/10/19 00:49:28;;;;;;;18.63;8.80;;;14.60;96.30;;;;;;5034171;28;20487;-70
2022/10/19 00:52:00;;;;;;;15.67;8.63;;;14.50;96.30;;;;;;5027117;28;20483;-68
2022/10/19 00:54:26;;;;;;;14.53;8.67;;;14.50;96.30;;;;;;5035293;28;20428;-69
2022/10/19 00:56:55;;;;;;;20.23;9.47;;;14.60;96.40;;;;;;5030809;28;20819;-71
2022/10/19 00:59:24;;;;;;;19.17;9.47;;;14.60;96.30;;;;;;5030790;28;20438;-70
2022/10/19 01:01:50;;;;;;;16.30;9.20;;;14.60;96.30;;;;;;5025428;28;21294;-70
2022/10/19 01:04:18;;;;;;;16.27;8.87;;;14.60;96.30;;;;;;5025672;28;20488;-71
2022/10/19 01:06:44;;;;;;;16.43;8.67;;;14.60;96.40;;;;;;5025246;28;20476;-70
2022/10/19 01:09:10;;;;;;;20.07;9.50;;;14.60;96.30;;;;;;5029859;28;20468;-70
2022/10/19 01:11:47;;;;;;;18.07;9.80;;;14.70;96.40;;;;;;5029084;28;20209;-70
2022/10/19 01:14:13;;;;;;;16.77;9.20;;;14.70;96.50;;;;;;5029886;28;20181;-70
2022/10/19 01:16:45;;;;;;;18.97;8.37;;;14.80;96.40;;;;;;5026177;28;20579;-70
2022/10/19 01:19:35;;;;;;;21.00;10.50;;;14.90;96.40;;;;;;5035277;28;20196;-71
2022/10/19 01:22:29;;;;;;;21.37;10.87;;;14.90;96.20;;;;;;5035874;28;20443;-70
2022/10/19 01:25:42;;;;;;;31.30;12.93;;;14.90;96.20;;;;;;5030167;28;20434;-70
2022/10/19 01:28:31;;;;;;;28.43;12.40;;;15.00;96.30;;;;;;4985629;28;20471;-71
2022/10/19 01:31:03;;;;;;;32.43;15.50;;;15.00;96.40;;;;;;5029984;28;20470;-71
2022/10/19 01:34:07;;;;;;;32.40;14.70;;;15.00;96.50;;;;;;5029404;28;20778;-70
2022/10/19 01:37:14;;;;;;;42.13;15.77;;;15.10;96.60;;;;;;5011794;28;20474;-70
2022/10/19 01:39:39;;;;;;;33.47;15.57;;;15.10;96.60;;;;;;5028756;28;20416;-70
2022/10/19 01:42:28;;;;;;;30.40;15.27;;;15.00;96.70;;;;;;5025735;28;20502;-69
2022/10/19 01:45:14;;;;;;;29.17;14.93;;;15.00;96.90;;;;;;5031621;28;20186;-71
2022/10/19 01:48:05;;;;;;;27.53;15.43;;;15.10;97.00;;;;;;5028180;28;20555;-70
2022/10/19 01:50:43;;;;;;;30.97;15.03;;;15.10;97.00;;;;;;5018203;28;20865;-70
2022/10/19 01:53:11;;;;;;;29.77;13.33;;;15.20;97.00;;;;;;5029026;28;20443;-71
2022/10/19 01:55:41;;;;;;;26.23;12.07;;;15.10;96.70;;;;;;5026270;28;20458;-70
2022/10/19 01:58:10;;;;;;;23.33;11.63;;;15.00;96.80;;;;;;5025679;28;20502;-70
2022/10/19 02:00:40;;;;;;;31.70;12.90;;;15.10;96.90;;;;;;5025425;28;20462;-69
2022/10/19 02:03:07;;;;;;;22.00;10.47;;;15.10;96.70;;;;;;5035987;28;20421;-70
2022/10/19 02:05:36;;;;;;;28.40;13.27;;;15.20;96.80;;;;;;5038704;28;20424;-70
2022/10/19 02:08:09;;;;;;;29.20;14.33;;;15.30;96.70;;;;;;5032506;28;20455;-70
2022/10/19 02:10:40;;;;;;;30.00;12.87;;;15.20;96.50;;;;;;5045644;28;20479;-70
2022/10/19 02:13:06;;;;;;;33.10;12.20;;;15.20;96.50;;;;;;5032495;28;20428;-71
2022/10/19 02:15:36;;;;;;;26.63;12.63;;;15.20;96.60;;;;;;5023653;28;20420;-71
2022/10/19 02:18:03;;;;;;;26.57;12.20;;;15.30;96.60;;;;;;5027488;28;20463;-72
2022/10/19 02:20:29;;;;;;;29.27;11.47;;;15.40;96.40;;;;;;5025904;28;20461;-70
2022/10/19 02:22:55;;;;;;;29.80;13.87;;;15.50;96.20;;;;;;5034773;28;20426;-69
2022/10/19 02:25:22;;;;;;;29.90;12.93;;;15.50;96.00;;;;;;5036182;28;20492;-71
2022/10/19 02:27:47;;;;;;;31.80;13.87;;;15.50;95.70;;;;;;5031018;28;20204;-69
2022/10/19 02:30:16;;;;;;;35.07;14.23;;;15.40;95.70;;;;;;5032972;28;20481;-71
2022/10/19 02:32:43;;;;;;;30.20;13.97;;;15.30;95.80;;;;;;5032136;28;20253;-69
2022/10/19 02:35:10;;;;;;;24.60;12.37;;;15.20;95.80;;;;;;5029019;28;20416;-70
2022/10/19 02:37:36;;;;;;;25.43;11.63;;;15.30;96.10;;;;;;5031343;28;20471;-69
2022/10/19 02:40:02;;;;;;;29.93;11.90;;;15.40;96.00;;;;;;5024498;28;20824;-69
2022/10/19 02:42:34;;;;;;;34.87;14.70;;;15.40;95.50;;;;;;5029998;28;20208;-69
2022/10/19 02:45:13;;;;;;;33.83;14.33;;;15.40;95.00;;;;;;5030541;28;20969;-69
2022/10/19 02:47:48;;;;;;;43.23;14.00;;;15.30;95.40;;;;;;5030039;28;20785;-71
2022/10/19 02:50:14;;;;;;;35.20;13.87;;;15.20;95.70;;;;;;5032513;28;20471;-68
2022/10/19 02:52:42;;;;;;;35.77;12.30;;;15.10;95.80;;;;;;5028818;28;20498;-71
2022/10/19 02:55:08;;;;;;;37.80;14.10;;;15.00;95.80;;;;;;5033916;28;20424;-72
2022/10/19 02:57:34;;;;;;;30.27;12.93;;;14.90;95.90;;;;;;5027545;28;20605;-72
2022/10/19 03:00:00;;;;;;;44.30;13.57;;;14.90;96.10;;;;;;5034388;28;20429;-72
2022/10/19 03:02:26;;;;;;;40.30;14.70;;;14.90;96.30;;;;;;5033516;28;21083;-70
2022/10/19 03:04:51;;;;;;;39.13;16.10;;;14.90;96.40;;;;;;5033618;28;20426;-70
2022/10/19 03:07:19;;;;;;;47.47;14.90;;;14.80;96.60;;;;;;5033030;28;20216;-69
2022/10/19 03:09:44;;;;;;;48.60;17.97;;;14.80;96.90;;;;;;5031859;28;20687;-69
2022/10/19 03:12:11;;;;;;;47.73;15.97;;;14.70;97.10;;;;;;5026182;28;20460;-70
2022/10/19 03:14:36;;;;;;;46.53;16.97;;;14.70;97.30;;;;;;5032739;28;20186;-69
2022/10/19 03:17:03;;;;;;;42.90;16.97;;;14.80;97.50;;;;;;5028045;28;20463;-71
2022/10/19 03:19:29;;;;;;;42.50;18.27;;;14.80;97.70;;;;;;5028886;28;20193;-69
2022/10/19 03:21:54;;;;;;;48.73;16.23;;;14.80;97.80;;;;;;5027604;28;20425;-69
2022/10/19 03:24:20;;;;;;;57.97;19.50;;;14.90;98.00;;;;;;5032474;28;20564;-70
2022/10/19 03:26:46;;;;;;;56.17;18.10;;;14.90;98.10;;;;;;5024809;28;20213;-72
2022/10/19 03:29:11;;;;;;;40.70;17.90;;;15.00;98.10;;;;;;5031809;28;20268;-69
2022/10/19 03:31:37;;;;;;;53.03;17.30;;;15.10;98.10;;;;;;5030125;28;20189;-69
2022/10/19 03:34:02;;;;;;;45.53;17.30;;;15.10;98.00;;;;;;5032061;28;20186;-71
2022/10/19 03:36:33;;;;;;;54.73;18.23;;;15.10;97.70;;;;;;5029911;28;20206;-69
2022/10/19 03:39:01;;;;;;;35.30;15.60;;;15.10;97.50;;;;;;5030414;28;20229;-71
2022/10/19 03:41:29;;;;;;;50.33;17.50;;;15.00;97.30;;;;;;5029783;28;20817;-74
2022/10/19 03:43:55;;;;;;;49.20;17.87;;;15.00;97.50;;;;;;5030738;28;20817;-70
2022/10/19 03:46:21;;;;;;;47.33;17.03;;;15.00;97.30;;;;;;5030088;28;20421;-73
2022/10/19 03:48:47;;;;;;;39.53;16.80;;;15.00;97.50;;;;;;5031314;28;20828;-69
2022/10/19 03:51:16;;;;;;;43.03;17.93;;;15.00;97.70;;;;;;5030853;28;20472;-70
2022/10/19 03:53:43;;;;;;;42.83;17.77;;;15.00;97.50;;;;;;5030091;28;20417;-71
2022/10/19 03:56:16;;;;;;;50.07;17.83;;;15.10;97.70;;;;;;5031063;28;20824;-70
2022/10/19 03:58:44;;;;;;;50.90;21.00;;;15.10;97.50;;;;;;5033634;28;20436;-71
2022/10/19 04:01:13;;;;;;;47.53;17.57;;;15.10;97.50;;;;;;5034587;28;20455;-69
2022/10/19 04:03:38;;;;;;;41.73;16.33;;;15.10;97.50;;;;;;5030442;28;20567;-72
2022/10/19 04:06:07;;;;;;;37.13;16.53;;;15.10;97.50;;;;;;5034556;28;20944;-70
2022/10/19 04:08:33;;;;;;;40.87;17.87;;;15.20;97.30;;;;;;5032698;28;20233;-71
2022/10/19 04:11:04;;;;;;;45.17;19.63;;;15.10;97.10;;;;;;5033345;28;20429;-69
2022/10/19 04:13:31;;;;;;;43.07;16.73;;;15.10;97.10;;;;;;5029620;28;20771;-73
2022/10/19 04:15:57;;;;;;;45.93;18.83;;;15.20;97.20;;;;;;5032085;28;20422;-71
2022/10/19 04:18:23;;;;;;;45.30;17.87;;;15.20;97.00;;;;;;5032286;28;21211;-69
2022/10/19 04:20:55;;;;;;;38.33;15.03;;;15.20;96.90;;;;;;5031910;28;20385;-69
2022/10/19 04:23:20;;;;;;;44.90;16.30;;;15.20;96.90;;;;;;5032229;28;20181;-70
2022/10/19 04:25:46;;;;;;;43.67;15.97;;;15.20;96.90;;;;;;5032585;28;20806;-73
2022/10/19 04:28:11;;;;;;;48.83;17.93;;;15.20;97.00;;;;;;5028977;28;20239;-69
2022/10/19 04:30:37;;;;;;;42.20;17.33;;;15.20;96.90;;;;;;5031056;28;20231;-68
2022/10/19 04:33:02;;;;;;;47.37;17.70;;;15.20;96.90;;;;;;5031072;28;20173;-71
2022/10/19 04:35:28;;;;;;;45.77;18.13;;;15.20;96.80;;;;;;5031614;28;20180;-71
2022/10/19 04:37:53;;;;;;;38.40;15.10;;;15.20;96.90;;;;;;5026317;28;20580;-69
2022/10/19 04:40:19;;;;;;;44.20;18.43;;;15.20;96.90;;;;;;5030241;28;20597;-70
2022/10/19 04:42:45;;;;;;;49.07;17.03;;;15.10;96.90;;;;;;5027648;28;20563;-69
2022/10/19 04:45:10;;;;;;;44.30;19.13;;;15.20;97.00;;;;;;5031078;28;20220;-70
2022/10/19 04:47:36;;;;;;;50.97;19.77;;;15.10;97.00;;;;;;5024694;28;20203;-72
2022/10/19 04:50:02;;;;;;;40.60;18.50;;;15.10;97.10;;;;;;5026173;28;20202;-70
2022/10/19 04:52:27;;;;;;;40.70;18.80;;;15.10;97.20;;;;;;5026735;28;20197;-71
2022/10/19 04:54:53;;;;;;;43.17;17.87;;;15.10;97.30;;;;;;5025814;28;20183;-73
2022/10/19 04:57:18;;;;;;;48.27;17.43;;;15.20;97.50;;;;;;5028226;28;20223;-71
2022/10/19 04:59:45;;;;;;;42.17;18.77;;;15.20;97.60;;;;;;5024407;28;20192;-71
2022/10/19 05:02:11;;;;;;;40.67;19.70;;;15.30;97.60;;;;;;5027123;28;20198;-72
2022/10/19 05:04:36;;;;;;;48.70;20.07;;;15.30;97.60;;;;;;5020062;28;20420;-73
2022/10/19 05:07:02;;;;;;;43.90;19.03;;;15.20;97.50;;;;;;5024015;28;20213;-72
2022/10/19 05:09:27;;;;;;;43.43;18.30;;;15.20;97.40;;;;;;5022708;28;20257;-72
2022/10/19 05:11:53;;;;;;;55.90;21.40;;;15.20;97.40;;;;;;5029899;28;20188;-70
2022/10/19 05:14:19;;;;;;;41.13;18.37;;;15.10;97.50;;;;;;5029984;28;20227;-71
2022/10/19 05:16:44;;;;;;;37.43;18.27;;;15.20;97.50;;;;;;5027724;28;20692;-71
2022/10/19 05:19:12;;;;;;;40.60;18.80;;;15.20;97.50;;;;;;5029407;28;20191;-70
2022/10/19 05:21:38;;;;;;;41.93;19.10;;;15.30;97.50;;;;;;5030256;28;20198;-73
2022/10/19 05:24:04;;;;;;;47.53;20.03;;;15.30;97.40;;;;;;5026364;28;20436;-72
2022/10/19 05:26:30;;;;;;;43.30;20.13;;;15.30;97.40;;;;;;5026424;28;21011;-71
2022/10/19 05:29:00;;;;;;;43.43;19.40;;;15.30;97.20;;;;;;5027690;28;20693;-71
2022/10/19 05:31:28;;;;;;;40.63;19.57;;;15.30;97.10;;;;;;5028803;28;20199;-72
2022/10/19 05:33:57;;;;;;;41.53;19.37;;;15.30;97.00;;;;;;5030023;28;20509;-72
2022/10/19 05:36:28;;;;;;;34.37;16.63;;;15.30;96.70;;;;;;5028243;28;20417;-71
2022/10/19 05:38:56;;;;;;;45.80;21.03;;;15.40;96.70;;;;;;5028573;28;20428;-71
2022/10/19 05:41:23;;;;;;;42.30;18.53;;;15.50;96.50;;;;;;5026331;28;20523;-71
2022/10/19 05:43:54;;;;;;;43.00;18.80;;;15.50;96.30;;;;;;5030007;28;20427;-71
2022/10/19 05:46:21;;;;;;;37.50;19.40;;;15.50;96.30;;;;;;5024083;28;20474;-71
2022/10/19 05:48:47;;;;;;;35.63;18.37;;;15.50;96.20;;;;;;5026847;28;20459;-70
2022/10/19 05:51:15;;;;;;;46.70;21.13;;;15.50;96.10;;;;;;5019694;28;20419;-73
2022/10/19 05:53:41;;;;;;;44.47;21.23;;;15.50;96.10;;;;;;5030938;28;20431;-72
2022/10/19 05:56:08;;;;;;;38.77;19.30;;;15.60;96.00;;;;;;5040123;28;20426;-71
2022/10/19 05:58:34;;;;;;;36.50;16.60;;;15.50;95.80;;;;;;5042043;28;20471;-72
2022/10/19 06:01:01;;;;;;;37.90;18.63;;;15.60;95.80;;;;;;5047310;28;20438;-72
2022/10/19 06:03:27;;;;;;;30.70;17.00;;;15.70;95.70;;;;;;5040259;28;20474;-72
2022/10/19 06:05:54;;;;;;;38.83;17.47;;;15.70;95.50;;;;;;5037316;28;20867;-71
2022/10/19 06:08:21;;;;;;;36.77;17.90;;;15.70;95.40;;;;;;5035681;28;20538;-72
2022/10/19 06:10:48;;;;;;;37.83;18.20;;;15.70;95.40;;;;;;5035846;28;20568;-69
2022/10/19 06:13:15;;;;;;;37.87;17.80;;;15.80;95.30;;;;;;5037320;28;20924;-72
2022/10/19 06:15:40;;;;;;;38.30;18.67;;;15.70;95.10;;;;;;5036555;28;20409;-72
2022/10/19 06:18:07;;;;;;;39.83;18.77;;;15.70;95.00;;;;;;5036640;28;20459;-71
2022/10/19 06:20:37;;;;;;;36.73;17.13;;;15.70;95.00;;;;;;5032104;28;20180;-72
2022/10/19 06:23:04;;;;;;;33.40;16.30;;;15.60;95.00;;;;;;5037867;28;20529;-72
2022/10/19 06:25:30;;;;;;;30.73;14.80;;;15.50;95.00;;;;;;5036991;28;20427;-73
2022/10/19 06:27:56;;;;;;;31.23;15.00;;;15.60;95.10;;;;;;5027923;28;20814;-71
2022/10/19 06:30:22;;;;;;;29.20;14.33;;;15.50;95.00;;;;;;5033299;28;20489;-71
2022/10/19 06:32:47;;;;;;;27.53;14.10;;;15.60;95.00;;;;;;5032591;28;20930;-71
2022/10/19 06:35:13;;;;;;;29.57;15.80;;;15.60;94.80;;;;;;5033088;28;20177;-73
2022/10/19 06:37:38;;;;;;;25.37;14.73;;;15.60;94.80;;;;;;5027740;28;20896;-71
2022/10/19 06:40:04;;;;;;;31.77;13.87;;;15.60;94.80;;;;;;5033530;28;20247;-73
2022/10/19 06:42:30;;;;;;;26.37;14.07;;;15.70;94.80;;;;;;5034255;28;20205;-71
2022/10/19 06:44:56;;;;;;;31.93;14.73;;;15.50;94.50;;;;;;5032705;28;20800;-71
2022/10/19 06:47:21;;;;;;;29.73;15.20;;;15.50;94.70;;;;;;5030008;28;20287;-72
2022/10/19 06:49:47;;;;;;;36.13;15.70;;;15.40;94.80;;;;;;5034576;28;20571;-72
2022/10/19 06:52:12;;;;;;;30.33;16.37;;;15.40;95.00;;;;;;5027449;28;20184;-71
2022/10/19 06:54:38;;;;;;;30.50;14.50;;;15.40;95.00;;;;;;5035140;28;20249;-72
2022/10/19 06:57:03;;;;;;;29.77;15.17;;;15.20;95.40;;;;;;5032975;28;20654;-72
2022/10/19 06:59:29;;;;;;;38.73;17.60;;;15.30;95.60;;;;;;5035937;28;20187;-71
2022/10/19 07:01:54;;;;;;;44.17;20.00;;;15.20;95.80;;;;;;5035665;28;20644;-71
2022/10/19 07:04:20;;;;;;;37.03;19.23;;;15.20;96.00;;;;;;5037532;28;20568;-71
2022/10/19 07:06:46;;;;;;;39.37;19.83;;;15.20;95.90;;;;;;5035648;28;20606;-72
2022/10/19 07:09:11;;;;;;;32.03;17.00;;;15.20;95.90;;;;;;5033368;28;20222;-71
2022/10/19 07:11:37;;;;;;;34.67;17.90;;;15.20;96.00;;;;;;5027358;28;20317;-71
2022/10/19 07:14:02;;;;;;;33.00;17.60;;;15.30;96.00;;;;;;5032554;28;20220;-72
2022/10/19 07:16:28;;;;;;;38.73;17.00;;;15.40;95.70;;;;;;5031399;28;20189;-70
2022/10/19 07:18:53;;;;;;;37.97;17.30;;;15.40;95.50;;;;;;5030834;28;20722;-71
2022/10/19 07:21:21;;;;;;;32.50;17.60;;;15.40;95.40;;;;;;5032011;28;20189;-70
2022/10/19 07:23:47;;;;;;;31.60;16.40;;;15.50;95.30;;;;;;5030181;28;20237;-72
2022/10/19 07:26:22;;;;;;;29.90;16.07;;;15.50;95.30;;;;;;5032160;28;20479;-70
2022/10/19 07:28:48;;;;;;;26.77;15.00;;;15.70;95.30;;;;;;5031479;28;20556;-72
2022/10/19 07:31:16;;;;;;;30.50;14.87;;;15.70;94.80;;;;;;5031098;28;20430;-73
2022/10/19 07:33:42;;;;;;;25.47;13.30;;;15.70;94.30;;;;;;5029111;28;20443;-71
2022/10/19 07:36:09;;;;;;;28.57;13.03;;;15.60;94.30;;;;;;5030890;28;20424;-72
2022/10/19 07:38:36;;;;;;;17.93;10.50;;;15.80;94.40;;;;;;5027328;28;20939;-71
2022/10/19 07:41:07;;;;;;;23.30;11.57;;;16.00;94.20;;;;;;5029469;28;21108;-72
2022/10/19 07:43:34;;;;;;;21.27;10.80;;;16.20;93.80;;;;;;5028238;28;20439;-72
2022/10/19 07:46:05;;;;;;;27.60;11.90;;;16.40;93.40;;;;;;5032518;28;20416;-72
2022/10/19 07:48:31;;;;;;;21.40;10.63;;;16.40;92.40;;;;;;5035171;28;20455;-71
2022/10/19 07:50:59;;;;;;;24.00;11.83;;;16.40;92.10;;;;;;5031403;28;20423;-72
2022/10/19 07:53:24;;;;;;;17.83;10.37;;;16.50;91.70;;;;;;5027106;28;20420;-70
2022/10/19 07:55:50;;;;;;;19.10;10.60;;;16.30;91.70;;;;;;5032114;28;20427;-74
2022/10/19 07:58:16;;;;;;;24.97;11.47;;;16.50;91.80;;;;;;5030291;28;20216;-70
2022/10/19 08:00:41;;;;;;;18.90;10.77;;;16.50;91.40;;;;;;5031185;28;20287;-73
2022/10/19 08:03:07;;;;;;;20.20;9.90;;;16.50;91.40;;;;;;5032154;28;20657;-73
2022/10/19 08:05:33;;;;;;;20.00;10.60;;;16.50;91.50;;;;;;5032880;28;20193;-70
2022/10/19 08:07:58;;;;;;;18.77;10.90;;;16.70;91.20;;;;;;5024990;28;20535;-72
2022/10/19 08:10:24;;;;;;;14.63;8.30;;;16.80;90.80;;;;;;5032966;28;20510;-71
2022/10/19 08:12:49;;;;;;;16.03;9.80;;;16.80;90.50;;;;;;5037417;28;20545;-72
2022/10/19 08:15:15;;;;;;;21.83;9.77;;;16.90;90.20;;;;;;5035302;28;20189;-73
2022/10/19 08:17:40;;;;;;;19.10;9.70;;;17.00;90.40;;;;;;5029847;28;20258;-72
2022/10/19 08:20:07;;;;;;;19.90;10.10;;;17.10;90.00;;;;;;5032561;28;20657;-70
2022/10/19 08:22:33;;;;;;;19.73;9.43;;;17.10;89.90;;;;;;5031121;28;20182;-71
2022/10/19 08:24:58;;;;;;;15.90;8.40;;;17.10;89.90;;;;;;5032066;28;20424;-72
2022/10/19 08:27:24;;;;;;;19.70;10.23;;;17.10;89.60;;;;;;5028844;28;20320;-73
2022/10/19 08:29:50;;;;;;;18.00;11.07;;;17.10;89.60;;;;;;5030351;28;20779;-70
2022/10/19 08:32:16;;;;;;;21.07;10.60;;;17.00;89.30;;;;;;5028475;28;20188;-71
2022/10/19 08:34:42;;;;;;;19.53;10.60;;;16.90;89.60;;;;;;5030616;28;20573;-73
2022/10/19 08:37:08;;;;;;;17.77;10.70;;;16.60;90.80;;;;;;5024640;28;20546;-70
2022/10/19 08:39:33;;;;;;;20.47;10.83;;;16.50;91.10;;;;;;5031236;28;20189;-69
2022/10/19 08:42:21;;;;;;;21.37;11.57;;;16.50;91.10;;;;;;5030658;28;20498;-72
2022/10/19 08:45:06;;;;;;;16.70;8.73;;;16.30;91.40;;;;;;5030751;28;20204;-72
2022/10/19 08:47:54;;;;;;;15.33;9.17;;;16.40;91.40;;;;;;5023677;28;20546;-71
2022/10/19 08:50:25;;;;;;;21.50;10.10;;;16.40;91.30;;;;;;5030868;28;20909;-71
2022/10/19 08:53:19;;;;;;;19.03;11.20;;;16.30;91.30;;;;;;5027948;28;20796;-71
2022/10/19 08:56:06;;;;;;;16.83;9.77;;;16.30;91.60;;;;;;5024974;28;20514;-71
2022/10/19 08:58:41;;;;;;;15.90;9.07;;;16.30;91.80;;;;;;5028634;28;20463;-71
2022/10/19 09:01:32;;;;;;;18.03;8.83;;;16.40;91.50;;;;;;5030191;28;20940;-72
2022/10/19 09:04:13;;;;;;;20.20;9.50;;;16.40;91.20;;;;;;5030612;28;20412;-71
2022/10/19 09:07:01;;;;;;;16.37;9.80;;;16.30;90.90;;;;;;5025639;28;20473;-72
2022/10/19 09:09:30;;;;;;;16.53;9.10;;;16.20;91.10;;;;;;5028516;28;20459;-70
2022/10/19 09:12:01;;;;;;;14.20;8.80;;;16.10;91.10;;;;;;5029424;28;20459;-71
2022/10/19 09:14:35;;;;;;;20.97;9.70;;;16.20;91.50;;;;;;5028309;28;20431;-72
2022/10/19 09:17:08;;;;;;;17.17;8.90;;;16.20;91.00;;;;;;5025195;28;20463;-71
2022/10/19 09:19:34;;;;;;;16.13;8.57;;;16.20;90.80;;;;;;5025577;28;20847;-72
2022/10/19 09:22:07;;;;;;;17.77;9.77;;;16.30;90.70;;;;;;5022607;28;20447;-71
2022/10/19 09:24:49;;;;;;;18.20;9.90;;;16.30;90.80;;;;;;5027954;28;20215;-71
2022/10/19 09:27:22;;;;;;;17.40;8.60;;;16.30;90.50;;;;;;5024471;28;20529;-72
2022/10/19 09:29:57;;;;;;;15.47;8.97;;;16.30;90.70;;;;;;5024905;28;20621;-71
2022/10/19 09:32:38;;;;;;;15.70;9.00;;;16.40;90.40;;;;;;5029663;28;21233;-71
2022/10/19 09:35:32;;;;;;;14.37;8.20;;;16.40;90.30;;;;;;5026511;28;20416;-71
2022/10/19 09:37:59;;;;;;;14.50;8.60;;;16.60;90.20;;;;;;5021142;28;20874;-71
2022/10/19 09:40:27;;;;;;;11.87;7.50;;;16.40;89.90;;;;;;5023432;28;20427;-71
2022/10/19 09:42:57;;;;;;;14.83;9.27;;;16.50;90.10;;;;;;5029083;28;20577;-72
2022/10/19 09:45:25;;;;;;;12.13;8.27;;;16.40;89.60;;;;;;5030690;28;20492;-72
2022/10/19 09:47:52;;;;;;;15.67;8.37;;;16.50;89.90;;;;;;5026188;28;20460;-71
2022/10/19 09:50:19;;;;;;;13.50;8.30;;;16.70;89.60;;;;;;5036865;28;20463;-71
2022/10/19 09:52:55;;;;;;;13.43;7.77;;;16.90;89.00;;;;;;5033030;28;20431;-72
2022/10/19 09:55:41;;;;;;;14.07;7.63;;;17.00;88.40;;;;;;5033463;28;20431;-72
2022/10/19 09:58:12;;;;;;;12.97;7.87;;;17.00;87.60;;;;;;5026076;28;20525;-71
2022/10/19 10:00:43;;;;;;;11.23;7.40;;;16.70;88.00;;;;;;5024185;28;20999;-72
2022/10/19 10:03:29;;;;;;;12.93;8.03;;;16.40;89.30;;;;;;5031351;28;20438;-73
2022/10/19 10:06:07;;;;;;;15.27;8.50;;;16.40;89.50;;;;;;5029910;28;20463;-71
2022/10/19 10:08:35;;;;;;;11.10;6.53;;;16.50;89.50;;;;;;5032999;28;20458;-71
2022/10/19 10:11:08;;;;;;;13.50;7.67;;;16.50;89.20;;;;;;5033876;28;20431;-72
2022/10/19 10:13:40;;;;;;;10.70;7.53;;;16.60;88.40;;;;;;5033457;28;20439;-72
2022/10/19 10:16:08;;;;;;;7.87;5.60;;;16.60;88.30;;;;;;5031396;28;20427;-71
2022/10/19 10:18:56;;;;;;;10.80;6.03;;;16.50;88.60;;;;;;5031412;28;20963;-70
2022/10/19 10:21:24;;;;;;;11.37;6.67;;;16.60;88.70;;;;;;5018215;28;20439;-71
2022/10/19 10:24:09;;;;;;;10.30;5.83;;;16.60;88.30;;;;;;5029284;28;21064;-71
2022/10/19 10:26:47;;;;;;;8.37;5.63;;;16.60;88.00;;;;;;5025662;28;20446;-71
2022/10/19 10:29:18;;;;;;;10.40;6.10;;;16.60;88.70;;;;;;5028200;28;20468;-71
2022/10/19 10:31:47;;;;;;;7.00;5.13;;;16.60;88.60;;;;;;5028593;28;20577;-70
2022/10/19 10:34:26;;;;;;;9.47;5.50;;;16.70;88.60;;;;;;5029740;28;20506;-72
2022/10/19 10:36:53;;;;;;;8.77;5.70;;;16.70;88.40;;;;;;5023222;28;20508;-71
2022/10/19 10:39:19;;;;;;;10.30;6.07;;;17.00;88.30;;;;;;5027381;28;20428;-72
2022/10/19 10:41:46;;;;;;;8.23;5.37;;;17.10;87.40;;;;;;5027702;28;20454;-70
2022/10/19 10:44:28;;;;;;;8.80;5.60;;;17.10;87.00;;;;;;5031507;28;20220;-71
2022/10/19 10:47:04;;;;;;;10.20;5.53;;;17.10;87.00;;;;;;5025712;28;20546;-71
2022/10/19 10:49:35;;;;;;;6.67;4.93;;;17.10;87.00;;;;;;5027850;28;20463;-71
2022/10/19 10:52:08;;;;;;;16.20;6.87;;;17.20;87.10;;;;;;5028825;28;20431;-71
2022/10/19 10:54:34;;;;;;;8.70;5.67;;;17.40;87.00;;;;;;5032637;28;20771;-71
2022/10/19 10:57:18;;;;;;;8.50;4.90;;;17.50;86.30;;;;;;5023266;28;20461;-72
2022/10/19 10:59:53;;;;;;;9.00;5.37;;;17.50;85.90;;;;;;5032308;28;20932;-72
2022/10/19 11:02:31;;;;;;;8.50;5.33;;;17.40;85.70;;;;;;5028866;28;20425;-72
2022/10/19 11:05:04;;;;;;;7.30;4.83;;;17.50;86.30;;;;;;5032153;28;20963;-76
2022/10/19 11:07:33;;;;;;;7.40;4.37;;;17.60;86.00;;;;;;5025970;28;20979;-72
2022/10/19 11:10:10;;;;;;;10.00;5.13;;;17.70;85.20;;;;;;5032273;28;20470;-73
2022/10/19 11:12:41;;;;;;;9.57;4.67;;;17.70;85.00;;;;;;5028120;28;20420;-72
2022/10/19 11:15:13;;;;;;;7.73;4.60;;;17.80;85.00;;;;;;5029856;28;20936;-72
2022/10/19 11:17:50;;;;;;;7.10;4.73;;;17.80;84.30;;;;;;5033219;28;20474;-72
2022/10/19 11:20:16;;;;;;;9.30;5.50;;;17.60;84.70;;;;;;5030863;28;20940;-72
2022/10/19 11:23:13;;;;;;;7.70;5.07;;;17.50;85.60;;;;;;5032385;28;20419;-71
2022/10/19 11:26:17;;;;;;;9.67;5.17;;;17.50;85.90;;;;;;5031708;28;20267;-72
2022/10/19 11:28:43;;;;;;;7.13;4.60;;;17.50;85.70;;;;;;5030350;28;20669;-72
2022/10/19 11:31:26;;;;;;;7.70;4.60;;;17.40;85.70;;;;;;5031407;28;20428;-73
2022/10/19 11:34:12;;;;;;;7.90;4.67;;;17.40;86.30;;;;;;5031850;28;20655;-72
2022/10/19 11:37:00;;;;;;;8.80;5.60;;;17.40;86.30;;;;;;5028444;28;20467;-72
2022/10/19 11:40:02;;;;;;;10.43;5.70;;;17.50;85.90;;;;;;5031772;28;20420;-73
2022/10/19 11:42:52;;;;;;;7.73;4.60;;;17.70;85.30;;;;;;5028938;28;20878;-73
2022/10/19 11:45:23;;;;;;;6.83;4.33;;;17.90;84.90;;;;;;5030587;28;20424;-72
2022/10/19 11:47:52;;;;;;;7.13;4.90;;;18.00;84.00;;;;;;5022592;28;20459;-71
2022/10/19 11:50:20;;;;;;;6.07;4.23;;;18.20;83.10;;;;;;5029669;28;20494;-72
2022/10/19 11:53:13;;;;;;;7.67;4.37;;;18.30;82.20;;;;;;5027888;28;20910;-74
2022/10/19 11:55:41;;;;;;;7.67;4.63;;;18.40;81.40;;;;;;5032588;28;20423;-71
2022/10/19 11:58:28;;;;;;;9.37;4.63;;;18.30;81.20;;;;;;5024237;28;20467;-72
2022/10/19 12:01:21;;;;;;;8.43;5.37;;;18.20;81.70;;;;;;5032911;28;20434;-72
2022/10/19 12:04:23;;;;;;;8.37;4.70;;;18.10;81.90;;;;;;5034444;28;20773;-71
2022/10/19 12:07:16;;;;;;;5.80;4.50;;;18.10;81.90;;;;;;5028647;28;20479;-72
2022/10/19 12:09:44;;;;;;;9.23;4.83;;;18.10;81.70;;;;;;5032884;28;20471;-72
2022/10/19 12:12:36;;;;;;;7.93;5.30;;;18.00;81.90;;;;;;5033644;28;20936;-72
2022/10/19 12:15:15;;;;;;;6.37;4.67;;;18.10;81.90;;;;;;5034755;28;20451;-72
2022/10/19 12:17:43;;;;;;;6.97;4.30;;;18.20;81.40;;;;;;5025450;28;20455;-75
2022/10/19 12:20:31;;;;;;;6.77;4.23;;;18.30;81.50;;;;;;5030842;28;20510;-73
2022/10/19 12:22:58;;;;;;;8.20;4.90;;;18.50;81.20;;;;;;5030637;28;20432;-73
2022/10/19 12:25:25;;;;;;;8.67;4.90;;;18.60;80.20;;;;;;5032395;28;20437;-72
2022/10/19 12:27:51;;;;;;;9.90;5.30;;;18.70;80.00;;;;;;5028194;28;20478;-71
2022/10/19 12:30:20;;;;;;;8.10;5.00;;;18.70;79.30;;;;;;5029464;28;20983;-72
2022/10/19 12:33:02;;;;;;;8.03;5.07;;;18.70;79.50;;;;;;5031149;28;20427;-72
2022/10/19 12:35:49;;;;;;;9.63;4.83;;;18.60;79.90;;;;;;5031869;28;20897;-71
2022/10/19 12:38:51;;;;;;;13.03;5.53;;;18.60;80.00;;;;;;5024843;28;20545;-71
2022/10/19 12:41:25;;;;;;;10.90;5.70;;;18.70;79.00;;;;;;5028492;28;20424;-73
2022/10/19 12:44:25;;;;;;;8.53;5.90;;;18.70;79.00;;;;;;5030225;28;20426;-73
2022/10/19 12:46:54;;;;;;;8.60;5.77;;;18.60;79.60;;;;;;5024921;28;21049;-73
2022/10/19 12:49:29;;;;;;;7.90;5.70;;;18.40;80.00;;;;;;5030790;28;20504;-71
2022/10/19 12:51:57;;;;;;;9.67;5.93;;;18.60;79.50;;;;;;5027308;28;20417;-73